Time;durP1;ratioP1;P1;durP2;ratioP2;P2;SDS_P1;SDS_P2;PMS_P1;PMS_P2;Temp;Humidity;BMP_temperature;BMP_pressure;BME280_temperature;BME280_humidity;BME280_pressure;Samples;Min_cycle;Max_cycle;Signal;HPM_P1;HPM_P2
2021/06/27 00:00:33;;;;;;;12.23;10.38;;;;;;;18.19;66.60;100456.06;4997126;28;20050;-79
2021/06/27 00:03:01;;;;;;;11.52;9.93;;;;;;;18.17;66.69;100442.34;4996516;28;20066;-78
2021/06/27 00:05:30;;;;;;;10.95;9.70;;;;;;;18.15;66.59;100449.53;4997975;28;20050;-80
2021/06/27 00:07:58;;;;;;;;;;;;;;;18.04;66.85;100443.66;5000849;28;20050;-80
2021/06/27 00:10:31;;;;;;;11.18;9.98;;;;;;;18.02;67.11;100446.81;4999671;28;19930;-80
2021/06/27 00:13:00;;;;;;;11.32;10.23;;;;;;;18.00;67.30;100446.38;4999874;28;20065;-79
2021/06/27 00:15:30;;;;;;;12.60;10.55;;;;;;;18.01;67.42;100450.00;4999649;28;20050;-79
2021/06/27 00:17:59;;;;;;;12.02;9.00;;;;;;;17.99;67.19;100447.53;4999948;28;20057;-80
2021/06/27 00:20:32;;;;;;;12.47;9.80;;;;;;;17.98;66.92;100447.94;4999533;28;20055;-80
2021/06/27 00:22:59;;;;;;;14.07;9.70;;;;;;;17.91;66.85;100439.28;5000720;28;20368;-79
2021/06/27 00:25:30;;;;;;;11.88;10.40;;;;;;;17.81;67.39;100446.28;4999963;28;20051;-79
2021/06/27 00:27:58;;;;;;;11.00;9.85;;;;;;;17.79;67.52;100437.38;4999972;28;20057;-80
2021/06/27 00:30:28;;;;;;;14.60;10.80;;;;;;;17.78;67.46;100432.91;5000019;28;20466;-78
2021/06/27 00:32:57;;;;;;;11.50;10.30;;;;;;;17.74;67.56;100432.78;5000104;28;20065;-78
2021/06/27 00:35:28;;;;;;;11.80;10.18;;;;;;;17.69;67.96;100435.91;4999539;28;20050;-79
2021/06/27 00:37:55;;;;;;;12.25;10.60;;;;;;;17.70;67.96;100431.09;4999280;28;20392;-79
2021/06/27 00:40:25;;;;;;;12.90;11.07;;;;;;;17.69;68.05;100433.09;4997935;28;20068;-80
2021/06/27 00:42:55;;;;;;;17.45;10.70;;;;;;;17.65;68.05;100438.63;5000350;28;20046;-79
2021/06/27 00:45:24;;;;;;;11.73;10.57;;;;;;;17.62;68.23;100436.53;5000087;28;20360;-79
2021/06/27 00:47:52;;;;;;;12.70;10.27;;;;;;;17.66;67.97;100439.47;5000283;28;20381;-80
2021/06/27 00:50:22;;;;;;;12.40;11.13;;;;;;;17.63;68.14;100434.53;4999702;28;20061;-79
2021/06/27 00:52:49;;;;;;;12.45;10.95;;;;;;;17.60;68.10;100433.28;4999953;28;20069;-79
2021/06/27 00:55:20;;;;;;;12.00;10.80;;;;;;;17.59;68.16;100444.91;4998897;28;20483;-80
2021/06/27 00:57:51;;;;;;;14.13;11.48;;;;;;;17.55;68.25;100441.16;4999015;28;20065;-80
2021/06/27 01:00:23;;;;;;;11.13;9.85;;;;;;;17.52;68.30;100439.09;4999188;28;20396;-80
2021/06/27 01:02:50;;;;;;;13.02;10.57;;;;;;;17.49;68.43;100439.78;5000003;28;20479;-79
2021/06/27 01:05:22;;;;;;;12.63;10.90;;;;;;;17.48;68.47;100441.81;4999661;28;20054;-79
2021/06/27 01:07:50;;;;;;;12.52;11.23;;;;;;;17.44;68.52;100441.69;4999285;28;20062;-80
2021/06/27 01:10:17;;;;;;;12.27;10.55;;;;;;;17.41;68.98;100445.25;4998764;28;20062;-79
2021/06/27 01:12:46;;;;;;;12.73;10.63;;;;;;;17.38;68.72;100443.16;4998175;28;20062;-80
2021/06/27 01:15:15;;;;;;;13.93;11.30;;;;;;;17.36;68.91;100441.88;4999131;28;20050;-80
2021/06/27 01:17:46;;;;;;;15.13;11.35;;;;;;;17.33;68.91;100437.78;4997166;28;20050;-79
2021/06/27 01:20:15;;;;;;;12.25;11.00;;;;;;;17.29;68.86;100434.06;4998949;28;20050;-78
2021/06/27 01:22:45;;;;;;;12.90;11.35;;;;;;;17.28;68.98;100443.66;4998866;28;20050;-78
2021/06/27 01:25:13;;;;;;;13.30;11.60;;;;;;;17.28;68.94;100440.03;4997991;28;20066;-78
2021/06/27 01:27:41;;;;;;;12.95;11.02;;;;;;;17.24;69.13;100434.34;4998537;28;20057;-78
2021/06/27 01:30:14;;;;;;;13.35;11.13;;;;;;;17.23;69.05;100429.88;4998856;28;20050;-80
2021/06/27 01:32:44;;;;;;;14.48;11.45;;;;;;;17.19;69.00;100429.75;4998906;28;20404;-79
2021/06/27 01:35:13;;;;;;;;;;;;;;;17.09;69.16;100432.28;4999175;28;20057;-80
2021/06/27 01:37:40;;;;;;;11.73;10.52;;;;;;;17.05;69.38;100426.59;5003095;28;19921;-80
2021/06/27 01:40:10;;;;;;;12.40;11.20;;;;;;;17.03;69.33;100434.56;4999893;28;20061;-79
2021/06/27 01:42:38;;;;;;;12.55;11.18;;;;;;;16.98;69.70;100438.44;4998160;28;20065;-80
2021/06/27 01:45:12;;;;;;;14.93;11.40;;;;;;;16.96;70.16;100443.59;4998294;28;20050;-80
2021/06/27 01:47:39;;;;;;;14.45;11.88;;;;;;;16.94;70.35;100431.88;4998665;28;20058;-78
2021/06/27 01:50:08;;;;;;;14.23;12.18;;;;;;;16.92;70.35;100439.88;4995786;28;20054;-79
2021/06/27 01:52:36;;;;;;;14.88;12.65;;;;;;;16.94;70.20;100437.50;4997841;28;20054;-80
2021/06/27 01:55:05;;;;;;;13.82;11.13;;;;;;;16.92;70.21;100434.25;4998157;28;20046;-80
2021/06/27 01:57:34;;;;;;;14.27;12.10;;;;;;;16.90;70.04;100430.16;4998442;28;20059;-79
2021/06/27 02:00:02;;;;;;;15.50;12.20;;;;;;;16.86;70.35;100429.22;4998412;28;20973;-80
2021/06/27 02:02:30;;;;;;;14.37;11.47;;;;;;;16.84;70.20;100429.63;4997729;28;20965;-79
2021/06/27 02:04:57;;;;;;;13.23;11.82;;;;;;;16.84;70.34;100435.25;4997800;28;20073;-79
2021/06/27 02:07:24;;;;;;;15.68;11.88;;;;;;;16.83;70.54;100431.59;4998333;28;20057;-79
2021/06/27 02:09:52;;;;;;;12.90;11.52;;;;;;;16.84;70.50;100433.25;4998365;28;20382;-80
2021/06/27 02:12:19;;;;;;;14.07;11.50;;;;;;;16.84;70.52;100432.44;4998926;28;20065;-80
2021/06/27 02:14:48;;;;;;;14.13;11.60;;;;;;;16.83;70.26;100439.22;5007186;28;20478;-80
2021/06/27 02:17:15;;;;;;;12.95;10.85;;;;;;;16.82;70.24;100440.41;5017915;28;20379;-80
2021/06/27 02:19:53;;;;;;;11.93;10.73;;;;;;;16.76;70.13;100436.19;5017855;28;20053;-80
2021/06/27 02:22:21;;;;;;;12.23;10.98;;;;;;;16.77;70.22;100437.78;5002684;28;20061;-80
2021/06/27 02:24:49;;;;;;;12.85;11.25;;;;;;;16.73;70.32;100439.69;4997683;28;20058;-80
2021/06/27 02:27:17;;;;;;;12.15;10.82;;;;;;;16.69;70.28;100435.94;4997641;28;20053;-80
2021/06/27 02:29:44;;;;;;;15.60;11.52;;;;;;;16.67;69.93;100438.31;4997612;28;20054;-80
2021/06/27 02:32:13;;;;;;;13.80;11.15;;;;;;;16.61;70.35;100430.13;4997765;28;20400;-79
2021/06/27 02:34:41;;;;;;;14.25;11.45;;;;;;;16.60;70.22;100431.28;4998117;28;20054;-80
2021/06/27 02:37:08;;;;;;;16.00;11.95;;;;;;;16.57;70.13;100434.00;4998484;28;20054;-80
2021/06/27 02:39:35;;;;;;;14.98;11.18;;;;;;;16.56;70.36;100433.16;5002805;28;20058;-80
2021/06/27 02:42:03;;;;;;;16.75;11.40;;;;;;;16.54;70.21;100432.72;4997286;28;20065;-78
2021/06/27 02:44:30;;;;;;;13.52;11.57;;;;;;;16.53;70.66;100439.53;4996875;28;20372;-80
2021/06/27 02:46:57;;;;;;;14.82;11.52;;;;;;;16.53;70.50;100433.91;4997266;28;20061;-80
2021/06/27 02:49:27;;;;;;;18.25;12.35;;;;;;;16.52;70.42;100421.00;4997801;28;20054;-80
2021/06/27 02:51:54;;;;;;;20.75;11.90;;;;;;;16.50;70.41;100423.34;4996963;28;20054;-80
2021/06/27 02:54:22;;;;;;;15.07;11.60;;;;;;;16.44;70.68;100430.38;4997139;28;20076;-80
2021/06/27 02:56:49;;;;;;;14.60;11.50;;;;;;;16.45;70.91;100432.03;4997613;28;20130;-79
2021/06/27 02:59:17;;;;;;;13.50;11.32;;;;;;;16.46;70.50;100428.03;4997767;28;20055;-80
2021/06/27 03:01:44;;;;;;;14.00;10.90;;;;;;;16.45;70.55;100426.41;5000891;28;20062;-80
2021/06/27 03:04:11;;;;;;;13.45;10.93;;;;;;;16.48;70.22;100419.25;5001329;28;20054;-81
2021/06/27 03:06:40;;;;;;;13.70;11.35;;;;;;;16.44;70.19;100419.16;4999703;28;20058;-81
2021/06/27 03:09:07;;;;;;;13.37;10.83;;;;;;;16.41;70.34;100419.88;4999474;28;20050;-80
2021/06/27 03:11:35;;;;;;;14.70;11.18;;;;;;;16.37;70.25;100427.38;5000528;28;20053;-80
2021/06/27 03:14:02;;;;;;;14.07;12.38;;;;;;;16.35;70.38;100426.91;5000231;28;20046;-80
2021/06/27 03:16:30;;;;;;;14.85;11.90;;;;;;;16.32;70.70;100416.38;5000014;28;20546;-79
2021/06/27 03:18:57;;;;;;;15.93;11.40;;;;;;;16.31;70.51;100418.34;5000083;28;20054;-79
2021/06/27 03:21:24;;;;;;;16.75;11.95;;;;;;;16.31;70.72;100409.13;5001070;28;20051;-79
2021/06/27 03:23:53;;;;;;;13.68;11.27;;;;;;;16.27;70.94;100413.81;4998817;28;20053;-80
2021/06/27 03:26:21;;;;;;;15.15;12.05;;;;;;;16.29;70.71;100408.66;4999743;28;20050;-80
2021/06/27 03:28:51;;;;;;;13.38;11.73;;;;;;;16.22;70.98;100407.25;4999948;28;20050;-79
2021/06/27 03:31:19;;;;;;;14.73;11.05;;;;;;;16.27;70.70;100408.19;4999726;28;20062;-79
2021/06/27 03:33:46;;;;;;;13.65;11.80;;;;;;;16.31;70.73;100406.31;4999870;28;20057;-80
2021/06/27 03:36:16;;;;;;;16.38;11.77;;;;;;;16.29;70.30;100394.59;5000628;28;20050;-79
2021/06/27 03:38:47;;;;;;;14.70;11.80;;;;;;;16.28;70.75;100390.97;4999464;28;20050;-80
2021/06/27 03:41:20;;;;;;;14.50;12.48;;;;;;;16.29;70.50;100392.59;4999517;28;20054;-80
2021/06/27 03:43:48;;;;;;;14.80;11.35;;;;;;;16.24;70.46;100385.25;4999699;28;20046;-80
2021/06/27 03:46:16;;;;;;;14.43;11.32;;;;;;;16.26;70.31;100382.09;5000545;28;20061;-80
2021/06/27 03:48:44;;;;;;;14.60;10.82;;;;;;;16.27;70.27;100377.28;5000835;28;20057;-80
2021/06/27 03:51:14;;;;;;;13.57;10.57;;;;;;;16.29;70.34;100377.72;5000876;28;20058;-80
2021/06/27 03:53:41;;;;;;;17.63;11.10;;;;;;;16.33;70.37;100384.28;5000330;28;20054;-80
2021/06/27 03:56:08;;;;;;;16.30;11.60;;;;;;;16.36;70.29;100383.59;5001173;28;20054;-80
2021/06/27 03:58:37;;;;;;;16.00;11.13;;;;;;;16.43;70.29;100375.34;5001004;28;20484;-80
2021/06/27 04:01:05;;;;;;;16.38;11.07;;;;;;;16.48;70.13;100383.53;5000011;28;20046;-80
2021/06/27 04:03:32;;;;;;;16.48;10.80;;;;;;;16.55;69.88;100386.56;5000035;28;20069;-80
2021/06/27 04:05:59;;;;;;;15.68;10.75;;;;;;;16.56;69.56;100391.00;5000360;28;20069;-79
2021/06/27 04:08:26;;;;;;;14.32;9.98;;;;;;;16.64;68.88;100392.03;5000365;28;20050;-80
2021/06/27 04:10:57;;;;;;;16.08;10.45;;;;;;;16.70;68.39;100386.97;5005760;28;20046;-79
2021/06/27 04:13:26;;;;;;;17.83;10.65;;;;;;;16.72;68.42;100384.63;5000165;28;20055;-80
2021/06/27 04:15:54;;;;;;;15.38;11.13;;;;;;;16.77;68.72;100382.34;5001015;28;20464;-80
2021/06/27 04:18:22;;;;;;;15.10;10.60;;;;;;;16.79;69.05;100387.63;5001829;28;20066;-80
2021/06/27 04:20:50;;;;;;;16.60;10.18;;;;;;;16.91;68.45;100387.59;5019727;28;20049;-80
2021/06/27 04:23:17;;;;;;;14.20;10.30;;;;;;;16.98;68.10;100384.16;5017682;28;20061;-79
2021/06/27 04:25:45;;;;;;;15.13;10.60;;;;;;;16.97;68.50;100380.53;4999203;28;20416;-80
2021/06/27 04:28:13;;;;;;;14.10;10.45;;;;;;;17.12;68.32;100392.19;4999321;28;20404;-80
2021/06/27 04:30:41;;;;;;;14.32;11.07;;;;;;;17.25;67.67;100393.75;4999068;28;20055;-80
2021/06/27 04:33:11;;;;;;;12.82;10.43;;;;;;;17.37;67.48;100396.47;4999611;28;20057;-80
2021/06/27 04:35:40;;;;;;;14.30;10.82;;;;;;;17.48;67.15;100399.56;4999558;28;20054;-80
2021/06/27 04:38:09;;;;;;;19.20;10.65;;;;;;;17.51;67.33;100386.75;4999542;28;20065;-80
2021/06/27 04:40:37;;;;;;;12.07;9.98;;;;;;;17.66;66.86;100394.38;4998715;28;20054;-79
2021/06/27 04:43:06;;;;;;;14.80;9.98;;;;;;;17.77;66.38;100387.00;5000236;28;20081;-79
2021/06/27 04:45:36;;;;;;;12.85;10.88;;;;;;;17.88;66.30;100378.03;4999308;28;20404;-79
2021/06/27 04:48:06;;;;;;;11.63;10.32;;;;;;;17.98;66.47;100375.47;4998699;28;20054;-80
2021/06/27 04:50:36;;;;;;;13.27;10.40;;;;;;;18.12;66.20;100374.97;4999525;28;20153;-80
2021/06/27 04:53:03;;;;;;;;;;;;;;;18.19;65.78;100371.50;5001161;28;20054;-80
2021/06/27 04:55:30;;;;;;;12.25;10.77;;;;;;;18.32;65.46;100363.72;5002657;28;19929;-81
2021/06/27 04:57:57;;;;;;;15.00;10.27;;;;;;;18.47;65.26;100362.81;5003043;28;20050;-80
2021/06/27 05:00:25;;;;;;;14.15;9.00;;;;;;;18.58;64.68;100361.06;5002619;28;20054;-79
2021/06/27 05:02:52;;;;;;;14.52;10.07;;;;;;;18.70;64.20;100364.91;5002224;28;20065;-80
2021/06/27 05:05:20;;;;;;;11.13;9.95;;;;;;;18.82;64.16;100357.13;5003223;28;20058;-80
2021/06/27 05:07:48;;;;;;;15.40;10.02;;;;;;;18.95;63.99;100360.59;5002530;28;20061;-80
2021/06/27 05:10:16;;;;;;;13.83;9.90;;;;;;;19.06;63.74;100357.97;5002654;28;20065;-80
2021/06/27 05:12:43;;;;;;;11.52;9.68;;;;;;;19.17;63.75;100355.31;5001761;28;20489;-80
2021/06/27 05:15:11;;;;;;;15.05;9.85;;;;;;;19.27;63.50;100346.22;5003066;28;20050;-80
2021/06/27 05:17:39;;;;;;;11.43;9.15;;;;;;;19.32;63.65;100340.28;5002084;28;20126;-80
2021/06/27 05:20:07;;;;;;;13.13;9.25;;;;;;;19.49;63.21;100336.13;5002916;28;20065;-78
2021/06/27 05:22:34;;;;;;;11.85;9.35;;;;;;;19.59;62.79;100334.66;5002058;28;20050;-79
2021/06/27 05:25:03;;;;;;;12.65;10.15;;;;;;;19.67;62.76;100331.59;5001134;28;20081;-80
2021/06/27 05:27:30;;;;;;;11.20;9.90;;;;;;;19.77;62.84;100332.94;5001497;28;20499;-79
2021/06/27 05:29:58;;;;;;;14.85;10.50;;;;;;;19.90;62.24;100332.72;5002183;28;20054;-81
2021/06/27 05:32:25;;;;;;;11.80;10.45;;;;;;;19.95;61.85;100329.56;5002029;28;20051;-81
2021/06/27 05:34:52;;;;;;;15.43;10.07;;;;;;;19.97;61.72;100333.66;5002727;28;20050;-80
2021/06/27 05:37:20;;;;;;;11.68;10.02;;;;;;;20.13;61.40;100335.47;5001466;28;20058;-80
2021/06/27 05:39:47;;;;;;;11.55;10.35;;;;;;;20.21;61.34;100332.38;4998706;28;20073;-80
2021/06/27 05:42:18;;;;;;;11.60;10.40;;;;;;;20.28;61.25;100326.81;4986976;28;20062;-80
2021/06/27 05:44:45;;;;;;;12.05;10.70;;;;;;;20.40;61.15;100319.28;4981862;28;20483;-80
2021/06/27 05:47:13;;;;;;;13.43;10.88;;;;;;;20.48;61.25;100310.47;4988542;28;20073;-79
2021/06/27 05:49:41;;;;;;;12.30;10.57;;;;;;;20.47;61.82;100316.50;4998525;28;20062;-80
2021/06/27 05:52:08;;;;;;;14.82;10.85;;;;;;;20.37;62.58;100317.19;4985494;28;20400;-79
2021/06/27 05:54:36;;;;;;;14.93;12.00;;;;;;;20.45;62.31;100321.75;4982038;28;20074;-80
2021/06/27 05:57:03;;;;;;;13.73;10.95;;;;;;;20.47;62.30;100328.66;4984364;28;20054;-79
2021/06/27 05:59:32;;;;;;;11.65;10.45;;;;;;;20.57;62.28;100327.16;4982128;28;20054;-79
2021/06/27 06:02:00;;;;;;;14.57;10.65;;;;;;;20.63;62.18;100322.81;4981511;28;20503;-80
2021/06/27 06:04:29;;;;;;;13.70;10.52;;;;;;;20.68;62.00;100328.13;4999846;28;20053;-79
2021/06/27 06:06:56;;;;;;;11.52;10.02;;;;;;;20.77;61.55;100327.81;4999425;28;20055;-80
2021/06/27 06:09:23;;;;;;;10.23;9.23;;;;;;;20.82;61.37;100332.31;5000180;28;20058;-79
2021/06/27 06:11:51;;;;;;;11.50;10.30;;;;;;;20.79;61.53;100328.25;5006277;28;20070;-79
2021/06/27 06:14:19;;;;;;;12.02;9.88;;;;;;;20.95;61.14;100330.84;4999660;28;20483;-79
2021/06/27 06:16:47;;;;;;;12.40;10.05;;;;;;;21.10;60.82;100331.78;5000214;28;20480;-80
2021/06/27 06:19:18;;;;;;;13.45;9.98;;;;;;;21.19;60.58;100329.47;4999480;28;20056;-79
2021/06/27 06:21:45;;;;;;;11.07;9.80;;;;;;;21.27;60.56;100322.66;4993414;28;20053;-79
2021/06/27 06:24:12;;;;;;;10.90;9.13;;;;;;;21.35;60.79;100325.53;4993068;28;20491;-79
2021/06/27 06:26:40;;;;;;;12.02;8.73;;;;;;;21.35;61.89;100326.34;5000616;28;20054;-78
2021/06/27 06:29:07;;;;;;;10.18;9.02;;;;;;;21.63;60.29;100325.81;4998093;28;20472;-79
2021/06/27 06:31:35;;;;;;;10.38;9.13;;;;;;;21.76;59.64;100322.66;4995965;28;20061;-79
2021/06/27 06:34:03;;;;;;;10.93;9.55;;;;;;;21.87;59.28;100323.53;4994608;28;20054;-79
2021/06/27 06:36:30;;;;;;;9.88;8.45;;;;;;;22.11;59.17;100327.72;4995511;28;20061;-79
2021/06/27 06:38:58;;;;;;;9.00;8.10;;;;;;;22.20;58.09;100333.84;4998714;28;20058;-79
2021/06/27 06:41:25;;;;;;;10.10;8.20;;;;;;;22.44;57.25;100340.06;4995494;28;20058;-78
2021/06/27 06:43:52;;;;;;;9.38;8.30;;;;;;;22.57;56.66;100332.00;4997004;28;20510;-78
2021/06/27 06:46:20;;;;;;;8.32;7.30;;;;;;;22.77;55.85;100335.34;4991685;28;20058;-80
2021/06/27 06:48:47;;;;;;;8.27;7.47;;;;;;;22.97;54.70;100338.59;4992649;28;20069;-80
2021/06/27 06:51:18;;;;;;;8.52;7.68;;;;;;;23.18;54.57;100337.88;4995386;28;20061;-80
2021/06/27 06:53:45;;;;;;;8.82;7.97;;;;;;;23.34;53.43;100332.59;4998587;28;20069;-79
2021/06/27 06:56:12;;;;;;;8.93;8.02;;;;;;;23.41;53.27;100334.63;4999465;28;20047;-78
2021/06/27 06:58:40;;;;;;;8.05;7.25;;;;;;;23.51;53.20;100337.47;4998279;28;20053;-78
2021/06/27 07:01:07;;;;;;;8.73;7.82;;;;;;;23.79;52.92;100333.03;4992892;28;20042;-79
2021/06/27 07:03:35;;;;;;;8.73;7.82;;;;;;;24.02;52.67;100335.44;4998856;28;20061;-79
2021/06/27 07:06:02;;;;;;;8.63;7.72;;;;;;;24.32;51.97;100331.28;4994828;28;20065;-78
2021/06/27 07:08:31;;;;;;;9.15;7.45;;;;;;;24.52;51.65;100328.75;4996916;28;20054;-80
2021/06/27 07:10:58;;;;;;;8.88;7.20;;;;;;;24.65;50.28;100332.78;5009292;28;20049;-78
2021/06/27 07:13:26;;;;;;;8.45;7.13;;;;;;;24.82;49.83;100325.38;5002610;28;20043;-79
2021/06/27 07:15:54;;;;;;;7.40;6.70;;;;;;;25.01;48.05;100329.72;4996197;28;20054;-79
2021/06/27 07:18:21;;;;;;;7.20;6.50;;;;;;;25.18;47.54;100324.28;4997653;28;20054;-79
2021/06/27 07:20:49;;;;;;;8.75;6.50;;;;;;;25.50;46.87;100319.19;4999628;28;20058;-80
2021/06/27 07:23:16;;;;;;;7.03;6.43;;;;;;;25.39;49.00;100327.03;4996050;28;20058;-80
2021/06/27 07:25:45;;;;;;;7.93;7.13;;;;;;;25.47;48.52;100325.75;4997894;28;20058;-80
2021/06/27 07:28:12;;;;;;;9.60;7.13;;;;;;;25.44;49.19;100323.72;4995322;28;20050;-79
2021/06/27 07:30:39;;;;;;;8.32;7.43;;;;;;;26.00;47.61;100325.69;4997607;28;20050;-79
2021/06/27 07:33:08;;;;;;;7.93;6.50;;;;;;;26.28;46.94;100325.34;4992934;28;20516;-80
2021/06/27 07:35:36;;;;;;;7.65;6.80;;;;;;;26.56;46.39;100326.22;4998131;28;20054;-79
2021/06/27 07:38:03;;;;;;;7.47;6.45;;;;;;;26.78;45.82;100331.69;4996966;28;20058;-81
2021/06/27 07:40:31;;;;;;;8.27;6.70;;;;;;;27.03;45.90;100328.47;4998594;28;20062;-80
2021/06/27 07:42:59;;;;;;;7.97;7.13;;;;;;;26.98;46.42;100324.03;4997573;28;20061;-80
2021/06/27 07:45:30;;;;;;;7.28;6.50;;;;;;;27.37;46.06;100328.34;4999877;28;20379;-81
2021/06/27 07:47:57;;;;;;;7.88;7.00;;;;;;;27.71;45.00;100330.22;4997343;28;20057;-79
2021/06/27 07:50:24;;;;;;;7.25;6.45;;;;;;;27.94;43.63;100332.28;4999789;28;20054;-79
2021/06/27 07:52:52;;;;;;;7.38;6.68;;;;;;;28.08;43.08;100336.94;4995760;28;20051;-81
2021/06/27 07:55:19;;;;;;;7.80;6.70;;;;;;;28.24;42.79;100339.06;4996236;28;20396;-80
2021/06/27 07:57:46;;;;;;;7.40;6.68;;;;;;;28.65;41.90;100327.19;4999645;28;20403;-79
2021/06/27 08:00:17;;;;;;;6.60;6.00;;;;;;;28.80;41.37;100332.63;4998094;28;20057;-79
2021/06/27 08:02:44;;;;;;;6.72;5.82;;;;;;;29.38;39.71;100330.03;4981462;28;20055;-78
2021/06/27 08:05:12;;;;;;;16.35;7.32;;;;;;;29.95;38.71;100325.69;4979371;28;20535;-79
2021/06/27 08:07:40;;;;;;;6.80;6.05;;;;;;;30.88;38.04;100316.47;4986936;28;20050;-79
2021/06/27 08:10:09;;;;;;;8.30;6.35;;;;;;;31.52;36.28;100316.47;5000055;28;20081;-78
2021/06/27 08:12:37;;;;;;;5.97;5.47;;;;;;;32.15;34.67;100314.69;5019252;28;20065;-79
2021/06/27 08:15:06;;;;;;;6.68;6.05;;;;;;;32.01;34.93;100315.19;5020797;28;20050;-79
2021/06/27 08:17:35;;;;;;;5.97;5.25;;;;;;;32.19;34.67;100314.53;5021078;28;20054;-79
2021/06/27 08:20:03;;;;;;;;;;;;;;;32.06;34.12;100314.59;5021072;28;20049;-79
2021/06/27 08:22:30;;;;;;;6.50;5.90;;;;;;;31.99;33.77;100314.06;5011194;28;19929;-79
2021/06/27 08:24:57;;;;;;;6.38;5.78;;;;;;;32.26;33.80;100305.63;5001093;28;20480;-79
2021/06/27 08:27:25;;;;;;;6.22;5.63;;;;;;;32.18;34.04;100318.69;5003822;28;20054;-79
2021/06/27 08:29:52;;;;;;;6.10;5.60;;;;;;;32.14;33.95;100310.16;5004754;28;20054;-78
2021/06/27 08:32:20;;;;;;;6.10;5.50;;;;;;;32.78;32.92;100316.88;5004519;28;20054;-79
2021/06/27 08:34:48;;;;;;;6.05;5.55;;;;;;;33.23;32.88;100312.63;5004805;28;20051;-79
2021/06/27 08:37:16;;;;;;;;;;;;;;;34.11;31.02;100312.13;5004229;28;20069;-79
2021/06/27 08:39:43;;;;;;;5.95;5.45;;;;;;;35.05;29.65;100308.56;5003517;28;19922;-79
2021/06/27 08:42:10;;;;;;;6.05;5.55;;;;;;;36.17;26.61;100307.44;5003911;28;20050;-79
2021/06/27 08:44:40;;;;;;;5.60;5.07;;;;;;;37.13;25.37;100303.38;5003913;28;20563;-79
2021/06/27 08:47:10;;;;;;;6.20;5.63;;;;;;;37.51;24.01;100301.56;5003488;28;20464;-80
2021/06/27 08:49:38;;;;;;;6.03;5.53;;;;;;;37.64;23.69;100289.59;5003737;28;20058;-79
2021/06/27 08:52:13;;;;;;;6.15;5.65;;;;;;;38.33;23.52;100287.78;5004192;28;20050;-80
2021/06/27 08:54:40;;;;;;;4.70;4.30;;;;;;;38.83;21.61;100292.50;5003874;28;20054;-80
2021/06/27 08:57:08;;;;;;;5.22;4.82;;;;;;;38.60;22.31;100282.78;5003686;28;20062;-79
2021/06/27 08:59:35;;;;;;;5.40;4.90;;;;;;;37.99;21.92;100292.41;5003930;28;20050;-80
2021/06/27 09:02:03;;;;;;;5.47;4.97;;;;;;;37.87;22.88;100279.06;5002668;28;20050;-79
2021/06/27 09:04:33;;;;;;;5.00;4.60;;;;;;;38.35;22.09;100278.56;5003495;28;20057;-79
2021/06/27 09:07:30;;;;;;;5.28;4.68;;;;;;;38.94;20.65;100280.16;5003208;28;20477;-80
2021/06/27 09:10:02;;;;;;;4.82;4.40;;;;;;;39.32;19.60;100283.88;5004733;28;20065;-80
2021/06/27 09:12:46;;;;;;;8.63;7.88;;;;;;;38.73;20.49;100279.44;5023153;28;20502;-80
2021/06/27 09:15:15;;;;;;;5.10;4.60;;;;;;;38.58;20.87;100276.69;5021981;28;20065;-79
2021/06/27 09:17:44;;;;;;;6.65;6.05;;;;;;;38.01;21.40;100277.34;5011690;28;20054;-78
2021/06/27 09:20:13;;;;;;;4.95;4.55;;;;;;;38.40;20.48;100269.06;5001754;28;20054;-79
2021/06/27 09:22:42;;;;;;;;;;;;;;;38.60;21.16;100264.50;5003370;28;20053;-78
2021/06/27 09:25:18;;;;;;;4.78;4.38;;;;;;;38.60;21.11;100265.31;5002017;28;19947;-79
2021/06/27 09:27:47;;;;;;;4.82;4.43;;;;;;;39.21;20.42;100269.22;5002963;28;20058;-78
2021/06/27 09:30:17;;;;;;;4.70;4.30;;;;;;;39.14;19.86;100261.75;5002983;28;20487;-78
2021/06/27 09:32:56;;;;;;;4.53;4.13;;;;;;;38.93;20.07;100261.06;5002862;28;20046;-78
2021/06/27 09:35:46;;;;;;;4.60;4.20;;;;;;;39.29;19.83;100249.94;5005698;28;20077;-79
2021/06/27 09:38:30;;;;;;;4.28;3.88;;;;;;;39.90;19.64;100258.22;5004600;28;20054;-78
2021/06/27 09:41:01;;;;;;;4.70;4.30;;;;;;;40.44;18.15;100254.34;5002639;28;20080;-79
2021/06/27 09:43:30;;;;;;;4.63;4.22;;;;;;;39.62;18.76;100254.38;5002815;28;20058;-78
2021/06/27 09:45:59;;;;;;;4.25;3.85;;;;;;;39.32;19.97;100254.72;5001154;28;20077;-78
2021/06/27 09:48:28;;;;;;;5.00;4.45;;;;;;;39.80;19.61;100251.00;5002275;28;20054;-78
2021/06/27 09:50:58;;;;;;;5.20;4.70;;;;;;;40.46;18.75;100254.63;5003100;28;20058;-79
2021/06/27 09:53:41;;;;;;;5.10;4.60;;;;;;;40.73;19.37;100258.91;5002694;28;20053;-78
2021/06/27 09:56:10;;;;;;;5.25;4.85;;;;;;;41.55;18.83;100253.97;5002669;28;20050;-79
2021/06/27 09:58:38;;;;;;;5.05;4.45;;;;;;;42.11;17.91;100247.88;5002147;28;20491;-78
2021/06/27 10:01:20;;;;;;;;;;;;;;;42.97;17.54;100248.84;5003319;28;20062;-79
2021/06/27 10:03:53;;;;;;;5.38;4.97;;;;;;;43.57;16.10;100247.91;5002450;28;19933;-79
2021/06/27 10:06:21;;;;;;;4.72;4.32;;;;;;;44.13;15.84;100241.31;5003158;28;20077;-79
2021/06/27 10:08:50;;;;;;;4.88;4.47;;;;;;;44.64;15.38;100249.31;5003283;28;20396;-79
2021/06/27 10:11:20;;;;;;;4.47;4.18;;;;;;;44.10;15.63;100235.75;5014877;28;20053;-79
2021/06/27 10:13:48;;;;;;;5.68;4.20;;;;;;;43.91;16.48;100242.41;5021184;28;20049;-79
2021/06/27 10:16:27;;;;;;;4.57;3.97;;;;;;;43.43;16.55;100241.16;5002960;28;20058;-78
2021/06/27 10:18:55;;;;;;;4.68;4.28;;;;;;;42.64;17.01;100238.97;5003229;28;20054;-78
2021/06/27 10:21:23;;;;;;;4.85;4.45;;;;;;;42.43;17.52;100234.91;4997718;28;20050;-80
2021/06/27 10:23:53;;;;;;;4.18;3.88;;;;;;;42.04;17.82;100233.03;4991564;28;20046;-80
2021/06/27 10:26:22;;;;;;;4.50;4.15;;;;;;;40.76;19.21;100243.25;5002485;28;20054;-81
2021/06/27 10:28:53;;;;;;;4.65;4.25;;;;;;;40.28;19.48;100229.66;4999958;28;20038;-81
2021/06/27 10:31:23;;;;;;;5.63;5.13;;;;;;;39.87;20.16;100230.09;4993837;28;20059;-78
2021/06/27 10:33:51;;;;;;;4.88;4.38;;;;;;;39.98;20.27;100230.13;4998078;28;20054;-78
2021/06/27 10:36:28;;;;;;;5.22;4.82;;;;;;;39.90;20.48;100234.88;4998070;28;20419;-78
2021/06/27 10:38:58;;;;;;;4.78;4.35;;;;;;;39.27;20.72;100227.16;4996888;28;20053;-78
2021/06/27 10:41:49;;;;;;;4.90;4.50;;;;;;;40.52;18.67;100222.50;4995833;28;20049;-78
2021/06/27 10:44:17;;;;;;;4.65;4.25;;;;;;;40.18;19.99;100216.63;4995602;28;20065;-78
2021/06/27 10:46:44;;;;;;;;;;;;;;;39.29;20.15;100215.78;4994686;28;20053;-78
2021/06/27 10:50:11;;;;;;;4.68;4.28;;;;;;;38.83;21.33;100213.88;4988064;28;19930;-78
2021/06/27 10:52:58;;;;;;;4.60;4.10;;;;;;;38.24;22.10;100220.22;5003738;28;20050;-81
2021/06/27 10:55:28;;;;;;;4.80;4.40;;;;;;;38.53;21.93;100220.00;5002543;28;20050;-82
2021/06/27 10:58:05;;;;;;;5.25;4.78;;;;;;;38.57;21.06;100219.75;4988708;28;20057;-80
2021/06/27 11:01:09;;;;;;;5.03;4.45;;;;;;;39.27;21.24;100217.59;4990568;28;20057;-80
2021/06/27 11:03:43;;;;;;;5.50;4.95;;;;;;;41.21;18.52;100216.09;4993686;28;20058;-81
2021/06/27 11:06:41;;;;;;;5.18;4.75;;;;;;;42.12;17.44;100204.78;5001896;28;20487;-80
2021/06/27 11:09:29;;;;;;;5.32;4.93;;;;;;;42.96;16.71;100206.19;5000714;28;20046;-81
2021/06/27 11:11:59;;;;;;;;;;;;;;;44.12;16.43;100194.88;5001146;28;20050;-81
2021/06/27 11:14:27;;;;;;;4.90;4.50;;;;;;;45.76;15.14;100199.31;4989175;28;19922;-81
2021/06/27 11:16:59;;;;;;;4.93;4.53;;;;;;;46.95;14.31;100202.25;5002700;28;20054;-81
2021/06/27 11:19:28;;;;;;;5.47;5.03;;;;;;;47.95;12.94;100194.75;5002883;28;20061;-80
2021/06/27 11:22:16;;;;;;;3.97;3.67;;;;;;;47.26;12.88;100191.47;5001795;28;20050;-81
2021/06/27 11:24:44;;;;;;;4.50;4.10;;;;;;;45.73;14.45;100193.75;5000053;28;20126;-81
2021/06/27 11:27:30;;;;;;;5.20;4.80;;;;;;;46.46;13.86;100188.31;5000317;28;20174;-80
2021/06/27 11:29:58;;;;;;;5.68;4.43;;;;;;;44.77;14.74;100193.53;4999320;28;20506;-80